createdAt,value
2022-12-05T00:00:56.263Z,144043.44
2022-12-05T00:03:23.395Z,144019.22
2022-12-05T00:05:50.363Z,143992.63
2022-12-05T00:08:17.858Z,144003.53
2022-12-05T00:10:46.027Z,143984.22
2022-12-05T00:13:12.895Z,143992.63
2022-12-05T00:15:40.608Z,144003.53
2022-12-05T00:18:07.542Z,144009.56
2022-12-05T00:20:34.587Z,144009.56
2022-12-05T00:23:01.554Z,143997.50
2022-12-05T00:25:29.223Z,143992.63
2022-12-05T00:27:56.180Z,143985.41
2022-12-05T00:30:23.105Z,143999.91
2022-12-05T00:32:50.013Z,144007.16
2022-12-05T00:35:16.970Z,144019.22
2022-12-05T00:37:43.920Z,144009.56
2022-12-05T00:40:10.997Z,144009.56
2022-12-05T00:42:37.964Z,144025.31
2022-12-05T00:45:05.190Z,144004.72
2022-12-05T00:47:34.600Z,143987.78
2022-12-05T00:50:01.599Z,143980.56
2022-12-05T00:52:28.535Z,143993.88
2022-12-05T00:54:55.424Z,143980.56
2022-12-05T00:57:22.433Z,143973.31
2022-12-05T00:59:49.321Z,143966.06
2022-12-05T01:02:16.527Z,143955.16
2022-12-05T01:04:43.362Z,143952.78
2022-12-05T01:07:10.283Z,143944.31
2022-12-05T01:09:37.289Z,143941.88
2022-12-05T01:12:04.254Z,143922.56
2022-12-05T01:14:34.897Z,143920.13
2022-12-05T01:17:01.931Z,143917.72
2022-12-05T01:19:30.683Z,143905.63
2022-12-05T01:21:57.912Z,143895.97
2022-12-05T01:24:25.100Z,143881.47
2022-12-05T01:26:52.469Z,143869.38
2022-12-05T01:29:20.236Z,143859.72
2022-12-05T01:31:47.522Z,143851.25
2022-12-05T01:34:15.723Z,143840.38
2022-12-05T01:36:42.669Z,143828.28
2022-12-05T01:39:10.778Z,143799.31
2022-12-05T01:41:40.392Z,143782.41
2022-12-05T01:44:07.225Z,143787.22
2022-12-05T01:46:35.860Z,143780.00
2022-12-05T01:49:14.051Z,143752.19
2022-12-05T01:51:43.489Z,143731.69
2022-12-05T01:54:10.519Z,143726.84
2022-12-05T01:56:37.899Z,143709.94
2022-12-05T01:59:07.777Z,143720.78
2022-12-05T02:01:35.335Z,143722.03
2022-12-05T02:04:02.528Z,143720.78
2022-12-05T02:06:29.784Z,143717.19
2022-12-05T02:08:56.646Z,143719.59
2022-12-05T02:11:25.019Z,143709.94
2022-12-05T02:14:11.784Z,143711.13
2022-12-05T02:16:48.698Z,143709.94
2022-12-05T02:19:30.801Z,143706.28
2022-12-05T02:22:00.418Z,143708.72
2022-12-05T02:24:40.948Z,143701.47
2022-12-05T02:27:36.324Z,143705.09
2022-12-05T02:30:05.739Z,143695.44
2022-12-05T02:32:36.221Z,143683.34
2022-12-05T02:35:06.134Z,143679.72
2022-12-05T02:37:40.036Z,143683.34
2022-12-05T02:40:29.614Z,143688.19
2022-12-05T02:43:00.893Z,143695.44
2022-12-05T02:45:28.844Z,143694.25
2022-12-05T02:47:56.106Z,143678.53
2022-12-05T02:50:24.982Z,143668.88
2022-12-05T02:52:54.358Z,143678.53
2022-12-05T02:55:22.677Z,143677.34
2022-12-05T02:57:52.935Z,143671.31
2022-12-05T03:00:19.781Z,143678.53
2022-12-05T03:02:48.594Z,143676.13
2022-12-05T03:05:20.651Z,143673.69
2022-12-05T03:07:50.378Z,143670.06
2022-12-05T03:10:18.954Z,143662.84
2022-12-05T03:12:49.902Z,143655.59
2022-12-05T03:15:17.732Z,143658.03
2022-12-05T03:17:48.545Z,143664.03
2022-12-05T03:20:29.299Z,143667.69
2022-12-05T03:22:58.972Z,143656.78
2022-12-05T03:25:29.506Z,143664.03
2022-12-05T03:28:06.280Z,143668.88
2022-12-05T03:30:36.097Z,143659.22
2022-12-05T03:36:57.393Z,143677.34
2022-12-05T03:39:27.767Z,143679.72
2022-12-05T03:42:12.511Z,143682.16
2022-12-05T03:44:51.311Z,143683.34
2022-12-05T03:47:25.995Z,143674.91
2022-12-05T03:49:56.659Z,143660.41
2022-12-05T03:53:19.057Z,143654.41
2022-12-05T03:55:46.906Z,143659.22
2022-12-05T03:58:17.724Z,143664.03
2022-12-05T04:00:47.199Z,143664.03
2022-12-05T04:03:19.208Z,143666.44
2022-12-05T04:06:05.100Z,143659.22
2022-12-05T04:08:33.296Z,143654.41
2022-12-05T04:11:06.390Z,143659.22
2022-12-05T04:13:36.678Z,143654.41
2022-12-05T04:16:45.683Z,143664.03
2022-12-05T04:19:19.608Z,143660.41
2022-12-05T04:21:52.135Z,143668.88
2022-12-05T04:24:51.226Z,143664.03
2022-12-05T04:27:38.560Z,143664.03
2022-12-05T04:30:05.762Z,143665.25
2022-12-05T04:32:38.176Z,143668.88
2022-12-05T04:35:09.347Z,143661.63
2022-12-05T04:37:37.312Z,143661.63
2022-12-05T04:40:09.479Z,143667.69
2022-12-05T04:42:37.247Z,143664.03
2022-12-05T04:45:06.607Z,143666.44
2022-12-05T04:47:37.149Z,143666.44
2022-12-05T04:50:06.102Z,143654.41
2022-12-05T04:52:33.486Z,143658.03
2022-12-05T04:55:00.251Z,143654.41
2022-12-05T04:57:32.921Z,143662.84
2022-12-05T05:00:00.056Z,143662.84
2022-12-05T05:02:37.784Z,143664.03
2022-12-05T05:05:12.484Z,143673.69
2022-12-05T05:07:45.188Z,143673.69
2022-12-05T05:10:14.246Z,143673.69
2022-12-05T05:12:41.201Z,143668.88
2022-12-05T05:15:11.472Z,143666.44
2022-12-05T05:17:38.278Z,143668.88
2022-12-05T05:20:23.675Z,143659.22
2022-12-05T05:22:51.570Z,143662.84
2022-12-05T05:25:19.002Z,143676.13
2022-12-05T05:27:50.285Z,143671.31
2022-12-05T05:30:17.536Z,143665.25
2022-12-05T05:32:44.378Z,143666.44
2022-12-05T05:35:11.784Z,143664.03
2022-12-05T05:37:38.910Z,143662.84
2022-12-05T05:40:10.929Z,143656.78
2022-12-05T05:42:48.147Z,143661.63
2022-12-05T05:45:15.428Z,143680.97
2022-12-05T05:47:42.474Z,143504.72
2022-12-05T05:50:10.197Z,143668.88
2022-12-05T05:52:37.936Z,143685.78
2022-12-05T05:55:05.674Z,143680.97
2022-12-05T05:57:32.528Z,143676.13
2022-12-05T05:59:59.554Z,143676.13
2022-12-05T06:02:31.047Z,143678.53
2022-12-05T06:04:57.908Z,143693.00
2022-12-05T06:07:25.257Z,143688.19
2022-12-05T06:09:52.067Z,143695.44
2022-12-05T06:12:18.884Z,143684.56
2022-12-05T06:14:47.346Z,143691.81
2022-12-05T06:17:14.291Z,143690.63
2022-12-05T06:19:41.112Z,143685.78
2022-12-05T06:22:08.252Z,143680.97
2022-12-05T06:24:35.064Z,143685.78
2022-12-05T06:27:01.891Z,143700.28
2022-12-05T06:29:33.514Z,143688.19
2022-12-05T06:32:01.452Z,143676.13
2022-12-05T06:34:28.466Z,143685.78
2022-12-05T06:36:55.268Z,143674.91
2022-12-05T06:39:22.100Z,143685.78
2022-12-05T06:41:48.974Z,143688.19
2022-12-05T06:44:15.908Z,143707.53
2022-12-05T06:46:42.736Z,143709.94
2022-12-05T06:49:09.998Z,143717.19
2022-12-05T06:51:36.838Z,143714.75
2022-12-05T06:54:03.786Z,143714.75
2022-12-05T06:56:30.589Z,143724.41
2022-12-05T06:58:57.664Z,143722.03
2022-12-05T07:01:41.526Z,143720.78
2022-12-05T07:04:13.435Z,143720.78
2022-12-05T07:06:41.813Z,143723.22
2022-12-05T07:09:10.992Z,143722.03
2022-12-05T07:11:38.215Z,143750.97
2022-12-05T07:14:10.677Z,143746.16
2022-12-05T07:16:46.213Z,143735.31
2022-12-05T07:19:13.080Z,143741.34
2022-12-05T07:21:39.880Z,143735.31
2022-12-05T07:24:06.791Z,143737.69
2022-12-05T07:26:33.581Z,143726.84
2022-12-05T07:29:00.476Z,143731.69
2022-12-05T07:31:29.692Z,143736.50
2022-12-05T07:33:56.558Z,143735.31
2022-12-05T07:36:23.721Z,143753.44
2022-12-05T07:38:57.162Z,143761.88
2022-12-05T07:41:31.904Z,143755.81
2022-12-05T07:44:00.050Z,143750.97
2022-12-05T07:46:27.810Z,143757.00
2022-12-05T07:48:55.218Z,143769.09
2022-12-05T07:51:22.217Z,143773.94
2022-12-05T07:53:49.050Z,143763.09
2022-12-05T07:56:17.184Z,143772.75
2022-12-05T07:58:45.051Z,143778.75
2022-12-05T08:01:15.120Z,143772.75
2022-12-05T08:03:42.512Z,143778.75
2022-12-05T08:06:13.748Z,143789.66
2022-12-05T08:08:40.911Z,143787.22
2022-12-05T08:11:11.945Z,143799.31
2022-12-05T08:13:38.799Z,143811.38
2022-12-05T08:16:07.178Z,143828.28
2022-12-05T08:18:34.004Z,143842.78
2022-12-05T08:21:04.712Z,143850.03
2022-12-05T08:23:31.810Z,143837.94
2022-12-05T08:26:02.787Z,143845.22
2022-12-05T08:28:29.976Z,143853.69
2022-12-05T08:30:56.821Z,143852.47
2022-12-05T08:33:23.647Z,143873.00
2022-12-05T08:35:50.446Z,143868.16
2022-12-05T08:38:17.238Z,143892.31
2022-12-05T08:40:44.074Z,143891.13
2022-12-05T08:43:10.904Z,143904.41
2022-12-05T08:45:37.699Z,143912.88
2022-12-05T08:48:04.599Z,143914.09
2022-12-05T08:50:31.438Z,143908.06
2022-12-05T08:52:58.281Z,143911.69
2022-12-05T08:55:25.170Z,143903.22
2022-12-05T08:57:51.947Z,143908.06
2022-12-05T09:00:18.972Z,143914.09
2022-12-05T09:02:50.426Z,143934.66
2022-12-05T09:05:27.669Z,143956.38
2022-12-05T09:07:55.572Z,143966.06
2022-12-05T09:10:22.633Z,143958.81
2022-12-05T09:12:51.168Z,143966.06
2022-12-05T09:15:18.324Z,143813.81
2022-12-05T09:17:45.619Z,144005.94
2022-12-05T09:20:13.897Z,144028.91
2022-12-05T09:22:42.438Z,144045.81
2022-12-05T09:25:09.434Z,144060.34
2022-12-05T09:27:36.244Z,144037.38
2022-12-05T09:30:03.649Z,144045.81
2022-12-05T09:32:30.468Z,144042.19
2022-12-05T09:34:57.403Z,144024.06
2022-12-05T09:37:38.887Z,144019.22
2022-12-05T09:40:15.338Z,144024.06
2022-12-05T09:42:45.373Z,144026.50
2022-12-05T09:45:18.033Z,144026.50
2022-12-05T09:47:44.800Z,143951.53
2022-12-05T09:50:18.753Z,144013.19
2022-12-05T09:52:55.368Z,144005.94
2022-12-05T09:55:22.298Z,143985.41
2022-12-05T09:57:54.068Z,143987.78
2022-12-05T10:00:20.958Z,143981.78
2022-12-05T10:02:47.722Z,144009.56
2022-12-05T10:05:19.377Z,144014.41
2022-12-05T10:07:53.353Z,144014.41
2022-12-05T10:10:39.155Z,144025.31
2022-12-05T10:13:16.663Z,144030.13
2022-12-05T10:15:47.627Z,144043.44
2022-12-05T10:18:33.198Z,144065.16
2022-12-05T10:21:05.396Z,144060.34
2022-12-05T10:26:38.067Z,144053.09
2022-12-05T10:29:15.793Z,144088.19
2022-12-05T10:31:44.669Z,144109.91
2022-12-05T10:34:14.594Z,144067.59
2022-12-05T10:36:46.678Z,144115.97
2022-12-05T10:39:13.498Z,144079.72
2022-12-05T10:41:40.323Z,144061.56
2022-12-05T10:44:07.212Z,144041.00
2022-12-05T10:46:34.220Z,144077.28
2022-12-05T10:49:01.067Z,144102.69
2022-12-05T10:51:32.644Z,144142.59
2022-12-05T10:54:24.506Z,144176.44
2022-12-05T10:56:52.561Z,144169.16
2022-12-05T10:59:21.020Z,144161.94
2022-12-05T11:01:53.560Z,144155.84
2022-12-05T11:04:22.783Z,144157.09
2022-12-05T11:06:55.696Z,144171.59
2022-12-05T11:09:27.091Z,144211.53
2022-12-05T11:12:02.560Z,144230.88
2022-12-05T11:14:29.865Z,144227.22
2022-12-05T11:16:58.122Z,144195.78
2022-12-05T11:19:26.455Z,144180.06
2022-12-05T11:21:53.534Z,144176.44
2022-12-05T11:24:21.324Z,144134.13
2022-12-05T11:26:48.135Z,144093.00
2022-12-05T11:29:34.365Z,144057.94
2022-12-05T11:32:02.154Z,144083.28
2022-12-05T11:34:37.626Z,144106.31
2022-12-05T11:37:13.276Z,144077.28
2022-12-05T11:39:40.695Z,144086.94
2022-12-05T11:42:19.270Z,144091.78
2022-12-05T11:45:12.369Z,144070.03
2022-12-05T11:47:57.906Z,144065.16
2022-12-05T11:50:32.038Z,144041.00
2022-12-05T11:53:04.986Z,144041.00
2022-12-05T11:55:48.098Z,144041.00
2022-12-05T11:58:20.919Z,144031.34
2022-12-05T12:01:03.679Z,144024.06
2022-12-05T12:03:33.310Z,144007.16
2022-12-05T12:06:19.887Z,144024.06
2022-12-05T12:09:06.023Z,144012.00
2022-12-05T12:11:38.768Z,143999.91
2022-12-05T12:14:24.391Z,143991.44
2022-12-05T12:17:03.765Z,144055.50
2022-12-05T12:19:47.250Z,144038.59
2022-12-05T12:22:41.023Z,144101.44
2022-12-05T12:25:20.234Z,144094.22
2022-12-05T12:27:47.129Z,144106.31
2022-12-05T12:30:19.974Z,144094.22
2022-12-05T12:32:56.026Z,144085.75
2022-12-05T12:35:27.898Z,144094.22
2022-12-05T12:38:13.220Z,144089.38
2022-12-05T12:40:39.979Z,144078.47
2022-12-05T12:43:52.745Z,144062.78
2022-12-05T12:46:16.741Z,144082.09
2022-12-05T12:48:55.972Z,144050.66
2022-12-05T12:51:22.806Z,144077.28
2022-12-05T12:54:01.548Z,144055.50
2022-12-05T12:56:36.734Z,144070.03
2022-12-05T12:59:06.290Z,144050.66
2022-12-05T13:01:33.187Z,144077.28
2022-12-05T13:04:04.276Z,144089.38
2022-12-05T13:06:49.768Z,144080.91
2022-12-05T13:09:35.082Z,144084.53
2022-12-05T13:12:06.338Z,144073.63
2022-12-05T13:14:34.682Z,144061.56
2022-12-05T13:17:01.904Z,144057.94
2022-12-05T13:19:38.913Z,144038.59
2022-12-05T13:22:06.191Z,144070.03
2022-12-05T13:24:33.559Z,144084.53
2022-12-05T13:27:02.495Z,144086.94
2022-12-05T13:29:32.393Z,144055.50
2022-12-05T13:32:01.673Z,144061.56
2022-12-05T13:34:29.246Z,144055.50
2022-12-05T13:37:17.167Z,144090.56
2022-12-05T13:40:10.407Z,144094.22
2022-12-05T13:42:37.821Z,144054.31
2022-12-05T13:45:04.792Z,144050.66
2022-12-05T13:47:37.473Z,144053.09
2022-12-05T13:50:10.014Z,144038.59
2022-12-05T13:52:52.164Z,144018.03
2022-12-05T13:55:23.156Z,144091.78
2022-12-05T13:57:51.851Z,144053.09
2022-12-05T14:00:18.655Z,144043.44
2022-12-05T14:02:46.034Z,144051.91
2022-12-05T14:05:18.869Z,144033.78
2022-12-05T14:07:52.851Z,144062.78
2022-12-05T14:10:23.954Z,144050.66
2022-12-05T14:12:52.602Z,144070.03
2022-12-05T14:15:33.688Z,144048.28
2022-12-05T14:18:02.332Z,144036.16
2022-12-05T14:20:58.129Z,144027.69
2022-12-05T14:23:37.380Z,144031.34
2022-12-05T14:26:17.118Z,144004.72
2022-12-05T14:28:43.939Z,144001.09
2022-12-05T14:31:24.426Z,143998.69
2022-12-05T14:34:26.637Z,143998.69
2022-12-05T14:37:24.133Z,144042.19
2022-12-05T14:39:52.857Z,143995.06
2022-12-05T14:42:22.513Z,144026.50
2022-12-05T14:44:50.020Z,144001.09
2022-12-05T14:47:43.093Z,144022.88
2022-12-05T14:50:33.193Z,144003.53
2022-12-05T14:53:18.867Z,144018.03
2022-12-05T14:55:47.515Z,143992.63
2022-12-05T14:58:48.198Z,143997.50
2022-12-05T15:01:18.464Z,143975.75
2022-12-05T15:03:52.633Z,143987.78
2022-12-05T15:06:22.496Z,143980.56
2022-12-05T15:08:50.465Z,143995.06
2022-12-05T15:11:28.211Z,143999.91
2022-12-05T15:14:18.232Z,143982.97
2022-12-05T15:16:46.199Z,143982.97
2022-12-05T15:19:17.368Z,143986.59
2022-12-05T15:21:50.699Z,144002.34
2022-12-05T15:24:18.462Z,143975.75
2022-12-05T15:26:55.955Z,143979.38
2022-12-05T15:29:25.613Z,143958.81
2022-12-05T15:31:58.752Z,143973.31
2022-12-05T15:34:29.269Z,143958.81
2022-12-05T15:36:57.980Z,143961.25
2022-12-05T15:39:26.172Z,143949.13
2022-12-05T15:41:53.414Z,143963.63
2022-12-05T15:44:26.748Z,143960.00
2022-12-05T15:46:55.856Z,143973.31
2022-12-05T15:49:25.130Z,143962.44
2022-12-05T15:51:59.077Z,143966.06
2022-12-05T15:54:32.207Z,143963.63
2022-12-05T15:57:01.873Z,143958.81
2022-12-05T15:59:36.111Z,143953.97
2022-12-05T16:02:09.788Z,143958.81
2022-12-05T16:04:39.463Z,143979.38
2022-12-05T16:07:09.495Z,143981.78
2022-12-05T16:09:39.638Z,143987.78
2022-12-05T16:12:17.050Z,143996.25
2022-12-05T16:14:59.540Z,144016.84
2022-12-05T16:17:28.771Z,144027.69
2022-12-05T16:20:09.688Z,144001.09
2022-12-05T16:22:36.523Z,144001.09
2022-12-05T16:25:13.493Z,143993.88
2022-12-05T16:27:40.852Z,143980.56
2022-12-05T16:30:09.064Z,144009.56
2022-12-05T16:32:35.950Z,143973.31
2022-12-05T16:35:03.245Z,143997.50
2022-12-05T16:37:31.224Z,143997.50
2022-12-05T16:39:58.465Z,143998.69
2022-12-05T16:42:26.669Z,143995.06
2022-12-05T16:45:01.855Z,144004.72
2022-12-05T16:47:50.059Z,143982.97
2022-12-05T16:50:35.202Z,143967.28
2022-12-05T16:53:02.906Z,144004.72
2022-12-05T16:55:34.293Z,144010.75
2022-12-05T16:58:04.031Z,144019.22
2022-12-05T17:00:33.777Z,143996.25
2022-12-05T17:03:25.846Z,143990.25
2022-12-05T17:05:47.571Z,143970.91
2022-12-05T17:08:14.441Z,143989.03
2022-12-05T17:10:42.573Z,143975.75
2022-12-05T17:13:13.195Z,143982.97
2022-12-05T17:15:40.007Z,144004.72
2022-12-05T17:18:11.355Z,143973.31
2022-12-05T17:20:40.721Z,143963.63
2022-12-05T17:23:11.049Z,143946.69
2022-12-05T17:25:38.396Z,143579.53
2022-12-05T17:28:05.290Z,143976.94
2022-12-05T17:30:34.223Z,143953.97
2022-12-05T17:33:01.744Z,143976.94
2022-12-05T17:35:29.167Z,143961.25
2022-12-05T17:37:56.540Z,143982.97
2022-12-05T17:40:23.531Z,143952.78
2022-12-05T17:42:50.320Z,143968.47
2022-12-05T17:45:17.247Z,143980.56
2022-12-05T17:47:44.028Z,143775.13
2022-12-05T17:50:15.252Z,143975.75
2022-12-05T17:52:42.380Z,144002.34
2022-12-05T17:55:17.832Z,143968.47
2022-12-05T17:57:45.436Z,144008.38
2022-12-05T18:00:14.593Z,143991.44
2022-12-05T18:02:41.974Z,143972.09
2022-12-05T18:05:09.650Z,143940.69
2022-12-05T18:07:37.391Z,143953.97
2022-12-05T18:10:11.092Z,143963.63
2022-12-05T18:12:39.484Z,143950.34
2022-12-05T18:15:06.979Z,143951.53
2022-12-05T18:17:33.782Z,143966.06
2022-12-05T18:20:00.705Z,143949.13
2022-12-05T18:22:27.640Z,143997.50
2022-12-05T18:24:54.586Z,143955.16
2022-12-05T18:27:21.466Z,143982.97
2022-12-05T18:29:48.652Z,143991.44
2022-12-05T18:32:16.249Z,143951.53
2022-12-05T18:34:43.127Z,143934.66
2022-12-05T18:37:10.670Z,143927.38
2022-12-05T18:39:37.771Z,143966.06
2022-12-05T18:42:09.029Z,143968.47
2022-12-05T18:44:40.089Z,143970.91
2022-12-05T18:47:06.947Z,143972.09
2022-12-05T18:49:33.752Z,143951.53
2022-12-05T18:52:00.592Z,143956.38
2022-12-05T18:54:27.389Z,143997.50
2022-12-05T18:56:54.300Z,143953.97
2022-12-05T18:59:22.046Z,143956.38
2022-12-05T19:01:49.260Z,143999.91
2022-12-05T19:04:17.525Z,143973.31
2022-12-05T19:06:49.389Z,143940.69
2022-12-05T19:09:17.038Z,143962.44
2022-12-05T19:11:47.569Z,143962.44
2022-12-05T19:14:15.139Z,143958.81
2022-12-05T19:16:41.974Z,143949.13
2022-12-05T19:19:10.560Z,143940.69
2022-12-05T19:21:37.509Z,143944.31
2022-12-05T19:24:05.355Z,143912.88
2022-12-05T19:26:32.345Z,143915.28
2022-12-05T19:28:59.195Z,143966.06
2022-12-05T19:31:27.386Z,143955.16
2022-12-05T19:33:55.628Z,143945.50
2022-12-05T19:36:23.832Z,143949.13
2022-12-05T19:38:51.870Z,143992.63
2022-12-05T19:41:20.669Z,143995.06
2022-12-05T19:43:47.880Z,143946.69
2022-12-05T19:46:16.242Z,143935.84
2022-12-05T19:48:43.514Z,143937.03
2022-12-05T19:51:10.554Z,143927.38
2022-12-05T19:53:41.048Z,143920.13
2022-12-05T19:56:11.433Z,143903.22
2022-12-05T19:58:38.527Z,143912.88
2022-12-05T20:01:22.666Z,143920.13
2022-12-05T20:03:50.988Z,143953.97
2022-12-05T20:06:17.991Z,143906.84
2022-12-05T20:08:45.116Z,143923.75
2022-12-05T20:11:13.631Z,143939.47
2022-12-05T20:13:48.807Z,143921.34
2022-12-05T20:16:16.944Z,143895.97
2022-12-05T20:18:43.893Z,143874.19
2022-12-05T20:21:12.535Z,143852.47
2022-12-05T20:23:39.530Z,143880.28
2022-12-05T20:26:16.844Z,143891.13
2022-12-05T20:28:44.268Z,143927.38
2022-12-05T20:31:16.269Z,143875.44
2022-12-05T20:33:43.531Z,143871.81
2022-12-05T20:36:11.810Z,143893.56
2022-12-05T20:38:38.940Z,143905.63
2022-12-05T20:41:06.831Z,143883.84
2022-12-05T20:43:34.154Z,143873.00
2022-12-05T20:46:06.123Z,143895.97
2022-12-05T20:48:33.227Z,143891.13
2022-12-05T20:51:10.447Z,143879.03
2022-12-05T20:53:38.720Z,143910.44
2022-12-05T20:56:06.568Z,143917.72
2022-12-05T20:58:33.787Z,143904.41
2022-12-05T21:01:05.418Z,143881.47
2022-12-05T21:03:32.324Z,143898.41
2022-12-05T21:05:59.177Z,143891.13
2022-12-05T21:08:26.160Z,143915.28
2022-12-05T21:10:53.179Z,143893.56
2022-12-05T21:13:20.028Z,143857.31
2022-12-05T21:15:46.920Z,143854.88
2022-12-05T21:18:13.763Z,143860.91
2022-12-05T21:20:42.258Z,143831.94
2022-12-05T21:23:09.977Z,143848.84
2022-12-05T21:25:36.891Z,143862.16
2022-12-05T21:28:03.793Z,143829.50
2022-12-05T21:30:30.650Z,143852.47
2022-12-05T21:32:57.522Z,143898.41
2022-12-05T21:35:24.318Z,143931.00
2022-12-05T21:37:51.207Z,143893.56
2022-12-05T21:40:18.055Z,143925.00
2022-12-05T21:42:45.076Z,143874.19
2022-12-05T21:45:11.886Z,143892.31
2022-12-05T21:47:38.891Z,143891.13
2022-12-05T21:50:07.720Z,143844.03
2022-12-05T21:52:39.505Z,143869.38
2022-12-05T21:55:07.942Z,143865.72
2022-12-05T21:57:38.839Z,143889.94
2022-12-05T22:00:09.259Z,143868.16
2022-12-05T22:02:36.462Z,143848.84
2022-12-05T22:05:04.853Z,143869.38
2022-12-05T22:07:31.850Z,143853.69
2022-12-05T22:09:59.168Z,143848.84
2022-12-05T22:12:26.436Z,143846.41
2022-12-05T22:14:53.749Z,143816.25
2022-12-05T22:17:20.774Z,143862.16
2022-12-05T22:19:47.713Z,143862.16
2022-12-05T22:22:16.870Z,143834.38
2022-12-05T22:24:43.776Z,143893.56
2022-12-05T22:27:10.830Z,143854.88
2022-12-05T22:29:37.810Z,143879.03
2022-12-05T22:32:04.873Z,143879.03
2022-12-05T22:34:31.838Z,143883.84
2022-12-05T22:36:59.980Z,143898.41
2022-12-05T22:39:27.580Z,143871.81
2022-12-05T22:41:59.922Z,143868.16
2022-12-05T22:44:28.890Z,143868.16
2022-12-05T22:46:55.780Z,143874.19
2022-12-05T22:49:25.168Z,143877.84
2022-12-05T22:51:52.436Z,143889.94
2022-12-05T22:54:19.460Z,143866.97
2022-12-05T22:56:46.591Z,143830.72
2022-12-05T22:59:14.841Z,143847.63
2022-12-05T23:01:42.016Z,143859.72
2022-12-05T23:04:11.935Z,143876.63
2022-12-05T23:06:39.308Z,143847.63
2022-12-05T23:09:07.981Z,143807.78
2022-12-05T23:11:35.545Z,143854.88
2022-12-05T23:14:02.915Z,143816.25
2022-12-05T23:16:31.815Z,143842.78
2022-12-05T23:19:00.774Z,143835.56
2022-12-05T23:21:32.334Z,143830.72
2022-12-05T23:24:00.567Z,143808.97
2022-12-05T23:26:29.118Z,143799.31
2022-12-05T23:28:56.359Z,143795.69
2022-12-05T23:31:23.598Z,143799.31
2022-12-05T23:33:51.596Z,143796.88
2022-12-05T23:36:19.396Z,143801.72
2022-12-05T23:38:46.690Z,143799.31
2022-12-05T23:41:15.283Z,143839.19
2022-12-05T23:43:43.167Z,143800.50
2022-12-05T23:46:10.421Z,143837.94
2022-12-05T23:48:37.346Z,143819.81
2022-12-05T23:51:05.940Z,143796.88
2022-12-05T23:53:33.724Z,143794.50
2022-12-05T23:56:01.988Z,143799.31
2022-12-05T23:58:30.788Z,143777.56
